EGAA/BFS METAR and TAF weather

Enter ICAO airport designator
Station Type Date Time Source
EGAA METAR 2024/02/26 16:50 UTC NOAA

EGAA 261650Z AUTO 35003KT 320V020 9999 FEW033 07/00 Q1022


Station Type Date Time Source
EGAA Decoded METAR 2024/02/26 16:50 UTC NOAA

Belfast / Aldergrove Airport, United Kingdom (EGAA) 54-39N 006-13W 0M
Feb 26, 2024 - 11:50 AM EST / 2024.02.26 1650 UTC
Wind: from the N (350 degrees) at 3 MPH (3 KT) (direction variable):0
Visibility: greater than 7 mile(s):0
Sky conditions: mostly clear
Temperature: 44 F (7 C)
Dew Point: 32 F (0 C)
Relative Humidity: 60%
Pressure (altimeter): 30.18 in. Hg (1022 hPa)
ob: EGAA 261650Z AUTO 35003KT 320V020 9999 FEW033 07/00 Q1022
cycle: 17

Station Type Date Time Source
EGAA TAF 2024/02/26 18:09 UTC NOAA